KPGA/PGA METAR and TAF weather

Enter ICAO airport designator
Station Type Date Time Source
KPGA METAR 2024/06/14 02:53 UTC NOAA

KPGA 140253Z AUTO 18010KT 10SM CLR 29/03 A3010 RMK AO2 SLP117 T02940033 50001


Station Type Date Time Source
KPGA Decoded METAR 2024/06/14 02:53 UTC NOAA

PAGE MUNICIPAL AIRPORT, AZ, United States (KPGA) 36-56N 111-27W 1307M
Jun 13, 2024 - 10:53 PM EDT / 2024.06.14 0253 UTC
Wind: from the S (180 degrees) at 12 MPH (10 KT):0
Visibility: 10 mile(s):0
Sky conditions: clear
Temperature: 84.9 F (29.4 C)
Dew Point: 37.9 F (3.3 C)
Relative Humidity: 18%
Pressure (altimeter): 30.1 in. Hg (1019 hPa)
Pressure tendency: 0.00 inches (0.1 hPa) higher than three hours ago
ob: KPGA 140253Z AUTO 18010KT 10SM CLR 29/03 A3010 RMK AO2 SLP117 T02940033 50001
cycle: 3

Station Type Date Time Source
KPGA TAF 2024/06/13 21:12 UTC NOAA